sensor_id;sensor_type;location;lat;lon;timestamp;temperature;humidity
12708;DHT22;6418;50.824;4.718;2023-12-20T00:01:00;6.30;99.90
12708;DHT22;6418;50.824;4.718;2023-12-20T00:03:27;6.30;99.90
12708;DHT22;6418;50.824;4.718;2023-12-20T00:05:54;6.20;99.90
12708;DHT22;6418;50.824;4.718;2023-12-20T00:08:22;6.20;99.90
12708;DHT22;6418;50.824;4.718;2023-12-20T00:10:49;6.10;99.90
12708;DHT22;6418;50.824;4.718;2023-12-20T00:13:16;6.10;99.90
12708;DHT22;6418;50.824;4.718;2023-12-20T00:15:43;6.10;99.90
12708;DHT22;6418;50.824;4.718;2023-12-20T00:18:11;6.00;99.90
12708;DHT22;6418;50.824;4.718;2023-12-20T00:20:38;6.00;99.90
12708;DHT22;6418;50.824;4.718;2023-12-20T00:23:05;6.00;99.90
12708;DHT22;6418;50.824;4.718;2023-12-20T00:25:33;5.90;99.90
12708;DHT22;6418;50.824;4.718;2023-12-20T00:28:00;5.90;99.90
12708;DHT22;6418;50.824;4.718;2023-12-20T00:30:27;5.90;99.90
12708;DHT22;6418;50.824;4.718;2023-12-20T00:32:55;5.90;99.90
12708;DHT22;6418;50.824;4.718;2023-12-20T00:35:23;5.90;99.90
12708;DHT22;6418;50.824;4.718;2023-12-20T00:37:50;5.90;99.90
12708;DHT22;6418;50.824;4.718;2023-12-20T00:40:17;5.90;99.90
12708;DHT22;6418;50.824;4.718;2023-12-20T00:42:44;5.90;99.90
12708;DHT22;6418;50.824;4.718;2023-12-20T00:45:12;5.90;99.90
12708;DHT22;6418;50.824;4.718;2023-12-20T00:47:40;5.90;99.90
12708;DHT22;6418;50.824;4.718;2023-12-20T00:50:08;5.80;99.90
12708;DHT22;6418;50.824;4.718;2023-12-20T00:52:36;5.80;99.90
12708;DHT22;6418;50.824;4.718;2023-12-20T00:55:04;5.80;99.90
12708;DHT22;6418;50.824;4.718;2023-12-20T00:57:31;5.80;99.90
12708;DHT22;6418;50.824;4.718;2023-12-20T00:59:58;5.80;99.90
12708;DHT22;6418;50.824;4.718;2023-12-20T01:02:25;5.80;99.90
12708;DHT22;6418;50.824;4.718;2023-12-20T01:04:52;5.70;99.90
12708;DHT22;6418;50.824;4.718;2023-12-20T01:07:19;5.70;99.90
12708;DHT22;6418;50.824;4.718;2023-12-20T01:09:48;5.70;99.90
12708;DHT22;6418;50.824;4.718;2023-12-20T01:12:15;5.60;99.90
12708;DHT22;6418;50.824;4.718;2023-12-20T01:14:42;5.60;99.90
12708;DHT22;6418;50.824;4.718;2023-12-20T01:17:09;5.60;99.90
12708;DHT22;6418;50.824;4.718;2023-12-20T01:19:36;5.60;99.90
12708;DHT22;6418;50.824;4.718;2023-12-20T01:22:03;5.50;99.90
12708;DHT22;6418;50.824;4.718;2023-12-20T01:24:30;5.50;99.90
12708;DHT22;6418;50.824;4.718;2023-12-20T01:26:58;5.50;99.90
12708;DHT22;6418;50.824;4.718;2023-12-20T01:29:25;5.50;99.90
12708;DHT22;6418;50.824;4.718;2023-12-20T01:31:52;5.40;99.90
12708;DHT22;6418;50.824;4.718;2023-12-20T01:34:19;5.40;99.90
12708;DHT22;6418;50.824;4.718;2023-12-20T01:36:46;5.40;99.90
12708;DHT22;6418;50.824;4.718;2023-12-20T01:39:13;5.40;99.90
12708;DHT22;6418;50.824;4.718;2023-12-20T01:41:40;5.40;99.90
12708;DHT22;6418;50.824;4.718;2023-12-20T01:44:08;5.40;99.90
12708;DHT22;6418;50.824;4.718;2023-12-20T01:46:35;5.40;99.90
12708;DHT22;6418;50.824;4.718;2023-12-20T01:49:03;5.30;99.90
12708;DHT22;6418;50.824;4.718;2023-12-20T01:51:31;5.30;99.90
12708;DHT22;6418;50.824;4.718;2023-12-20T01:53:59;5.30;99.90
12708;DHT22;6418;50.824;4.718;2023-12-20T01:56:27;5.30;99.90
12708;DHT22;6418;50.824;4.718;2023-12-20T01:58:56;5.20;99.90
12708;DHT22;6418;50.824;4.718;2023-12-20T02:01:25;5.20;99.90
12708;DHT22;6418;50.824;4.718;2023-12-20T02:03:54;5.20;99.90
12708;DHT22;6418;50.824;4.718;2023-12-20T02:06:21;5.20;99.90
12708;DHT22;6418;50.824;4.718;2023-12-20T02:08:50;5.20;99.90
12708;DHT22;6418;50.824;4.718;2023-12-20T02:11:17;5.20;99.90
12708;DHT22;6418;50.824;4.718;2023-12-20T02:13:44;5.20;99.90
12708;DHT22;6418;50.824;4.718;2023-12-20T02:16:11;5.20;99.90
12708;DHT22;6418;50.824;4.718;2023-12-20T02:18:40;5.20;99.90
12708;DHT22;6418;50.824;4.718;2023-12-20T02:21:09;5.20;99.90
12708;DHT22;6418;50.824;4.718;2023-12-20T02:23:38;5.10;99.90
12708;DHT22;6418;50.824;4.718;2023-12-20T02:26:05;5.10;99.90
12708;DHT22;6418;50.824;4.718;2023-12-20T02:28:32;5.10;99.90
12708;DHT22;6418;50.824;4.718;2023-12-20T02:31:00;5.10;99.90
12708;DHT22;6418;50.824;4.718;2023-12-20T02:33:27;5.10;99.90
12708;DHT22;6418;50.824;4.718;2023-12-20T02:35:54;5.10;99.90
12708;DHT22;6418;50.824;4.718;2023-12-20T02:38:21;5.10;99.90
12708;DHT22;6418;50.824;4.718;2023-12-20T02:40:49;5.00;99.90
12708;DHT22;6418;50.824;4.718;2023-12-20T02:43:16;5.00;99.90
12708;DHT22;6418;50.824;4.718;2023-12-20T02:45:43;5.10;99.90
12708;DHT22;6418;50.824;4.718;2023-12-20T02:48:10;5.10;99.90
12708;DHT22;6418;50.824;4.718;2023-12-20T02:50:37;5.10;99.90
12708;DHT22;6418;50.824;4.718;2023-12-20T02:53:04;5.10;99.90
12708;DHT22;6418;50.824;4.718;2023-12-20T02:55:31;5.10;99.90
12708;DHT22;6418;50.824;4.718;2023-12-20T02:57:59;5.20;99.90
12708;DHT22;6418;50.824;4.718;2023-12-20T03:00:26;5.20;99.90
12708;DHT22;6418;50.824;4.718;2023-12-20T03:02:53;5.20;99.90
12708;DHT22;6418;50.824;4.718;2023-12-20T03:05:20;5.20;99.90
12708;DHT22;6418;50.824;4.718;2023-12-20T03:07:47;5.30;99.90
12708;DHT22;6418;50.824;4.718;2023-12-20T03:10:14;5.30;99.90
12708;DHT22;6418;50.824;4.718;2023-12-20T03:12:41;5.30;99.90
12708;DHT22;6418;50.824;4.718;2023-12-20T03:15:10;5.30;99.90
12708;DHT22;6418;50.824;4.718;2023-12-20T03:17:37;5.40;99.90
12708;DHT22;6418;50.824;4.718;2023-12-20T03:20:05;5.40;99.90
12708;DHT22;6418;50.824;4.718;2023-12-20T03:22:32;5.40;99.90
12708;DHT22;6418;50.824;4.718;2023-12-20T03:25:00;5.40;99.90
12708;DHT22;6418;50.824;4.718;2023-12-20T03:27:26;5.40;99.90
12708;DHT22;6418;50.824;4.718;2023-12-20T03:29:53;5.40;99.90
12708;DHT22;6418;50.824;4.718;2023-12-20T03:32:22;5.40;99.90
12708;DHT22;6418;50.824;4.718;2023-12-20T03:34:49;5.40;99.90
12708;DHT22;6418;50.824;4.718;2023-12-20T03:37:16;5.40;99.90
12708;DHT22;6418;50.824;4.718;2023-12-20T03:39:42;5.40;99.90
12708;DHT22;6418;50.824;4.718;2023-12-20T03:42:09;5.30;99.90
12708;DHT22;6418;50.824;4.718;2023-12-20T03:44:38;5.30;99.90
12708;DHT22;6418;50.824;4.718;2023-12-20T03:47:05;5.30;99.90
12708;DHT22;6418;50.824;4.718;2023-12-20T03:49:34;5.30;99.90
12708;DHT22;6418;50.824;4.718;2023-12-20T03:52:03;5.30;99.90
12708;DHT22;6418;50.824;4.718;2023-12-20T03:54:30;5.30;99.90
12708;DHT22;6418;50.824;4.718;2023-12-20T03:56:56;5.30;99.90
12708;DHT22;6418;50.824;4.718;2023-12-20T03:59:23;5.30;99.90
12708;DHT22;6418;50.824;4.718;2023-12-20T04:01:50;5.20;99.90
12708;DHT22;6418;50.824;4.718;2023-12-20T04:04:17;5.20;99.90
12708;DHT22;6418;50.824;4.718;2023-12-20T04:06:46;5.20;99.90
12708;DHT22;6418;50.824;4.718;2023-12-20T04:09:13;5.20;99.90
12708;DHT22;6418;50.824;4.718;2023-12-20T04:11:40;5.20;99.90
12708;DHT22;6418;50.824;4.718;2023-12-20T04:14:07;5.20;99.90
12708;DHT22;6418;50.824;4.718;2023-12-20T04:19:01;5.20;99.90
12708;DHT22;6418;50.824;4.718;2023-12-20T04:21:28;5.30;99.90
12708;DHT22;6418;50.824;4.718;2023-12-20T04:23:56;5.30;99.90
12708;DHT22;6418;50.824;4.718;2023-12-20T04:26:23;5.30;99.90
12708;DHT22;6418;50.824;4.718;2023-12-20T04:28:50;5.30;99.90
12708;DHT22;6418;50.824;4.718;2023-12-20T04:31:17;5.30;99.90
12708;DHT22;6418;50.824;4.718;2023-12-20T04:33:44;5.30;99.90
12708;DHT22;6418;50.824;4.718;2023-12-20T04:36:11;5.30;99.90
12708;DHT22;6418;50.824;4.718;2023-12-20T04:38:38;5.30;99.90
12708;DHT22;6418;50.824;4.718;2023-12-20T04:41:06;5.30;99.90
12708;DHT22;6418;50.824;4.718;2023-12-20T04:43:33;5.30;99.90
12708;DHT22;6418;50.824;4.718;2023-12-20T04:46:00;5.20;99.90
12708;DHT22;6418;50.824;4.718;2023-12-20T04:48:27;5.20;99.90
12708;DHT22;6418;50.824;4.718;2023-12-20T04:50:54;5.20;99.90
12708;DHT22;6418;50.824;4.718;2023-12-20T04:53:21;5.20;99.90
12708;DHT22;6418;50.824;4.718;2023-12-20T04:55:48;5.20;99.90
12708;DHT22;6418;50.824;4.718;2023-12-20T04:58:17;5.20;99.90
12708;DHT22;6418;50.824;4.718;2023-12-20T05:00:44;5.20;99.90
12708;DHT22;6418;50.824;4.718;2023-12-20T05:03:11;5.20;99.90
12708;DHT22;6418;50.824;4.718;2023-12-20T05:05:38;5.10;99.90
12708;DHT22;6418;50.824;4.718;2023-12-20T05:08:06;5.20;99.90
12708;DHT22;6418;50.824;4.718;2023-12-20T05:10:33;5.20;99.90
12708;DHT22;6418;50.824;4.718;2023-12-20T05:13:00;5.20;99.90
12708;DHT22;6418;50.824;4.718;2023-12-20T05:15:28;5.20;99.90
12708;DHT22;6418;50.824;4.718;2023-12-20T05:17:55;5.20;99.90
12708;DHT22;6418;50.824;4.718;2023-12-20T05:20:22;5.20;99.90
12708;DHT22;6418;50.824;4.718;2023-12-20T05:22:49;5.20;99.90
12708;DHT22;6418;50.824;4.718;2023-12-20T05:25:16;5.20;99.90
12708;DHT22;6418;50.824;4.718;2023-12-20T05:27:43;5.20;99.90
12708;DHT22;6418;50.824;4.718;2023-12-20T05:30:11;5.20;99.90
12708;DHT22;6418;50.824;4.718;2023-12-20T05:32:39;5.20;99.90
12708;DHT22;6418;50.824;4.718;2023-12-20T05:35:07;5.20;99.90
12708;DHT22;6418;50.824;4.718;2023-12-20T05:37:34;5.20;99.90
12708;DHT22;6418;50.824;4.718;2023-12-20T05:40:01;5.20;99.90
12708;DHT22;6418;50.824;4.718;2023-12-20T05:42:28;5.20;99.90
12708;DHT22;6418;50.824;4.718;2023-12-20T05:44:55;5.10;99.90
12708;DHT22;6418;50.824;4.718;2023-12-20T05:47:22;5.10;99.90
12708;DHT22;6418;50.824;4.718;2023-12-20T05:49:50;5.10;99.90
12708;DHT22;6418;50.824;4.718;2023-12-20T05:52:17;5.10;99.90
12708;DHT22;6418;50.824;4.718;2023-12-20T05:54:44;5.10;99.90
12708;DHT22;6418;50.824;4.718;2023-12-20T05:57:11;5.10;99.90
12708;DHT22;6418;50.824;4.718;2023-12-20T05:59:38;5.10;99.90
12708;DHT22;6418;50.824;4.718;2023-12-20T06:02:05;5.10;99.90
12708;DHT22;6418;50.824;4.718;2023-12-20T06:04:32;5.10;99.90
12708;DHT22;6418;50.824;4.718;2023-12-20T06:07:01;5.10;99.90
12708;DHT22;6418;50.824;4.718;2023-12-20T06:09:28;5.00;99.90
12708;DHT22;6418;50.824;4.718;2023-12-20T06:11:55;5.00;99.90
12708;DHT22;6418;50.824;4.718;2023-12-20T06:14:22;5.00;99.90
12708;DHT22;6418;50.824;4.718;2023-12-20T06:16:49;5.00;99.90
12708;DHT22;6418;50.824;4.718;2023-12-20T06:19:16;5.10;99.90
12708;DHT22;6418;50.824;4.718;2023-12-20T06:21:43;5.10;99.90
12708;DHT22;6418;50.824;4.718;2023-12-20T06:24:11;5.10;99.90
12708;DHT22;6418;50.824;4.718;2023-12-20T06:26:38;5.10;99.90
12708;DHT22;6418;50.824;4.718;2023-12-20T06:29:05;5.10;99.90
12708;DHT22;6418;50.824;4.718;2023-12-20T06:31:32;5.10;99.90
12708;DHT22;6418;50.824;4.718;2023-12-20T06:33:59;5.10;99.90
12708;DHT22;6418;50.824;4.718;2023-12-20T06:36:26;5.20;99.90
12708;DHT22;6418;50.824;4.718;2023-12-20T06:38:53;5.20;99.90
12708;DHT22;6418;50.824;4.718;2023-12-20T06:41:21;5.20;99.90
12708;DHT22;6418;50.824;4.718;2023-12-20T06:43:50;5.20;99.90
12708;DHT22;6418;50.824;4.718;2023-12-20T06:46:17;5.20;99.90
12708;DHT22;6418;50.824;4.718;2023-12-20T06:48:44;5.20;99.90
12708;DHT22;6418;50.824;4.718;2023-12-20T06:51:14;5.20;99.90
12708;DHT22;6418;50.824;4.718;2023-12-20T06:53:41;5.20;99.90
12708;DHT22;6418;50.824;4.718;2023-12-20T06:56:08;5.20;99.90
12708;DHT22;6418;50.824;4.718;2023-12-20T06:58:37;5.20;99.90
12708;DHT22;6418;50.824;4.718;2023-12-20T07:01:04;5.20;99.90
12708;DHT22;6418;50.824;4.718;2023-12-20T07:03:31;5.20;99.90
12708;DHT22;6418;50.824;4.718;2023-12-20T07:05:58;5.20;99.90
12708;DHT22;6418;50.824;4.718;2023-12-20T07:08:25;5.20;99.90
12708;DHT22;6418;50.824;4.718;2023-12-20T07:10:52;5.20;99.90
12708;DHT22;6418;50.824;4.718;2023-12-20T07:13:19;5.20;99.90
12708;DHT22;6418;50.824;4.718;2023-12-20T07:15:49;5.20;99.90
12708;DHT22;6418;50.824;4.718;2023-12-20T07:18:16;5.20;99.90
12708;DHT22;6418;50.824;4.718;2023-12-20T07:20:43;5.10;99.90
12708;DHT22;6418;50.824;4.718;2023-12-20T07:23:10;5.10;99.90
12708;DHT22;6418;50.824;4.718;2023-12-20T07:25:37;5.10;99.90
12708;DHT22;6418;50.824;4.718;2023-12-20T07:28:04;5.10;99.90
12708;DHT22;6418;50.824;4.718;2023-12-20T07:30:31;5.00;99.90
12708;DHT22;6418;50.824;4.718;2023-12-20T07:33:00;5.00;99.90
12708;DHT22;6418;50.824;4.718;2023-12-20T07:35:28;5.00;99.90
12708;DHT22;6418;50.824;4.718;2023-12-20T07:37:55;5.00;99.90
12708;DHT22;6418;50.824;4.718;2023-12-20T07:40:22;5.00;99.90
12708;DHT22;6418;50.824;4.718;2023-12-20T07:42:49;5.00;99.90
12708;DHT22;6418;50.824;4.718;2023-12-20T07:45:16;5.00;99.90
12708;DHT22;6418;50.824;4.718;2023-12-20T07:47:43;5.00;99.90
12708;DHT22;6418;50.824;4.718;2023-12-20T07:50:12;4.90;99.90
12708;DHT22;6418;50.824;4.718;2023-12-20T07:52:39;4.90;99.90
12708;DHT22;6418;50.824;4.718;2023-12-20T07:55:07;4.90;99.90
12708;DHT22;6418;50.824;4.718;2023-12-20T07:57:34;4.90;99.90
12708;DHT22;6418;50.824;4.718;2023-12-20T08:00:01;4.90;99.90
12708;DHT22;6418;50.824;4.718;2023-12-20T08:02:29;4.80;99.90
12708;DHT22;6418;50.824;4.718;2023-12-20T08:04:56;4.80;99.90
12708;DHT22;6418;50.824;4.718;2023-12-20T08:07:24;4.80;99.90
12708;DHT22;6418;50.824;4.718;2023-12-20T08:09:51;4.80;99.90
12708;DHT22;6418;50.824;4.718;2023-12-20T08:12:20;4.80;99.90
12708;DHT22;6418;50.824;4.718;2023-12-20T08:14:47;4.70;99.90
12708;DHT22;6418;50.824;4.718;2023-12-20T08:17:14;4.70;99.90
12708;DHT22;6418;50.824;4.718;2023-12-20T08:19:41;4.70;99.90
12708;DHT22;6418;50.824;4.718;2023-12-20T08:22:08;4.70;99.90
12708;DHT22;6418;50.824;4.718;2023-12-20T08:24:37;4.70;99.90
12708;DHT22;6418;50.824;4.718;2023-12-20T08:27:04;4.70;99.90
12708;DHT22;6418;50.824;4.718;2023-12-20T08:29:31;4.60;99.90
12708;DHT22;6418;50.824;4.718;2023-12-20T08:31:58;4.60;99.90
12708;DHT22;6418;50.824;4.718;2023-12-20T08:34:25;4.60;99.90
12708;DHT22;6418;50.824;4.718;2023-12-20T08:36:53;4.60;99.90
12708;DHT22;6418;50.824;4.718;2023-12-20T08:39:20;4.60;99.90
12708;DHT22;6418;50.824;4.718;2023-12-20T08:41:48;4.60;99.90
12708;DHT22;6418;50.824;4.718;2023-12-20T08:44:15;4.60;99.90
12708;DHT22;6418;50.824;4.718;2023-12-20T08:46:42;4.60;99.90
12708;DHT22;6418;50.824;4.718;2023-12-20T08:49:09;4.70;99.90
12708;DHT22;6418;50.824;4.718;2023-12-20T08:51:36;4.70;99.90
12708;DHT22;6418;50.824;4.718;2023-12-20T08:54:05;4.70;99.90
12708;DHT22;6418;50.824;4.718;2023-12-20T08:56:34;4.80;99.90
12708;DHT22;6418;50.824;4.718;2023-12-20T08:59:02;4.80;99.90
12708;DHT22;6418;50.824;4.718;2023-12-20T09:01:29;4.90;99.90
12708;DHT22;6418;50.824;4.718;2023-12-20T09:03:56;4.90;99.90
12708;DHT22;6418;50.824;4.718;2023-12-20T09:06:23;5.00;99.90
12708;DHT22;6418;50.824;4.718;2023-12-20T09:08:50;5.10;99.90
12708;DHT22;6418;50.824;4.718;2023-12-20T09:11:17;5.10;99.90
12708;DHT22;6418;50.824;4.718;2023-12-20T09:13:44;5.10;99.90
12708;DHT22;6418;50.824;4.718;2023-12-20T09:16:13;5.10;99.90
12708;DHT22;6418;50.824;4.718;2023-12-20T09:18:41;5.10;99.90
12708;DHT22;6418;50.824;4.718;2023-12-20T09:21:08;5.10;99.90
12708;DHT22;6418;50.824;4.718;2023-12-20T09:23:35;5.10;99.90
12708;DHT22;6418;50.824;4.718;2023-12-20T09:26:04;5.10;99.90
12708;DHT22;6418;50.824;4.718;2023-12-20T09:28:31;5.10;99.90
12708;DHT22;6418;50.824;4.718;2023-12-20T09:31:03;5.10;99.90
12708;DHT22;6418;50.824;4.718;2023-12-20T09:33:32;5.10;99.90
12708;DHT22;6418;50.824;4.718;2023-12-20T09:35:59;5.10;99.90
12708;DHT22;6418;50.824;4.718;2023-12-20T09:38:26;5.10;99.90
12708;DHT22;6418;50.824;4.718;2023-12-20T09:40:53;5.10;99.90
12708;DHT22;6418;50.824;4.718;2023-12-20T09:43:24;5.10;99.90
12708;DHT22;6418;50.824;4.718;2023-12-20T09:45:53;5.10;99.90
12708;DHT22;6418;50.824;4.718;2023-12-20T09:48:20;5.10;99.90
12708;DHT22;6418;50.824;4.718;2023-12-20T09:50:49;5.20;99.90
12708;DHT22;6418;50.824;4.718;2023-12-20T09:53:16;5.20;99.90
12708;DHT22;6418;50.824;4.718;2023-12-20T09:55:44;5.20;99.90
12708;DHT22;6418;50.824;4.718;2023-12-20T09:58:11;5.30;99.90
12708;DHT22;6418;50.824;4.718;2023-12-20T10:00:38;5.30;99.90
12708;DHT22;6418;50.824;4.718;2023-12-20T10:03:06;5.40;99.90
12708;DHT22;6418;50.824;4.718;2023-12-20T10:05:34;5.40;99.90
12708;DHT22;6418;50.824;4.718;2023-12-20T10:08:03;5.50;99.90
12708;DHT22;6418;50.824;4.718;2023-12-20T10:10:30;5.50;99.90
12708;DHT22;6418;50.824;4.718;2023-12-20T10:13:04;5.60;99.90
12708;DHT22;6418;50.824;4.718;2023-12-20T10:15:32;5.60;99.90
12708;DHT22;6418;50.824;4.718;2023-12-20T10:17:59;5.70;99.90
12708;DHT22;6418;50.824;4.718;2023-12-20T10:20:27;5.80;99.90
12708;DHT22;6418;50.824;4.718;2023-12-20T10:22:55;5.80;99.90
12708;DHT22;6418;50.824;4.718;2023-12-20T10:25:24;5.90;99.90
12708;DHT22;6418;50.824;4.718;2023-12-20T10:28:09;6.00;99.90
12708;DHT22;6418;50.824;4.718;2023-12-20T10:30:36;6.00;99.90
12708;DHT22;6418;50.824;4.718;2023-12-20T10:33:03;6.10;99.90
12708;DHT22;6418;50.824;4.718;2023-12-20T10:35:31;6.10;99.90
12708;DHT22;6418;50.824;4.718;2023-12-20T10:38:03;6.20;99.90
12708;DHT22;6418;50.824;4.718;2023-12-20T10:40:34;6.20;99.90
12708;DHT22;6418;50.824;4.718;2023-12-20T10:43:03;6.30;99.90
12708;DHT22;6418;50.824;4.718;2023-12-20T10:45:30;6.30;99.90
12708;DHT22;6418;50.824;4.718;2023-12-20T10:47:58;6.40;99.90
12708;DHT22;6418;50.824;4.718;2023-12-20T10:50:27;6.50;99.90
12708;DHT22;6418;50.824;4.718;2023-12-20T10:52:54;6.50;99.90
12708;DHT22;6418;50.824;4.718;2023-12-20T10:55:22;6.50;99.90
12708;DHT22;6418;50.824;4.718;2023-12-20T10:57:52;6.60;99.90
12708;DHT22;6418;50.824;4.718;2023-12-20T11:00:19;6.60;99.90
12708;DHT22;6418;50.824;4.718;2023-12-20T11:02:49;6.60;99.90
12708;DHT22;6418;50.824;4.718;2023-12-20T11:05:26;6.70;99.90
12708;DHT22;6418;50.824;4.718;2023-12-20T11:07:57;6.70;99.90
12708;DHT22;6418;50.824;4.718;2023-12-20T11:10:31;6.70;99.90
12708;DHT22;6418;50.824;4.718;2023-12-20T11:13:08;6.80;99.90
12708;DHT22;6418;50.824;4.718;2023-12-20T11:15:36;6.80;99.90
12708;DHT22;6418;50.824;4.718;2023-12-20T11:18:04;6.80;99.90
12708;DHT22;6418;50.824;4.718;2023-12-20T11:20:36;6.90;99.90
12708;DHT22;6418;50.824;4.718;2023-12-20T11:23:04;7.00;99.90
12708;DHT22;6418;50.824;4.718;2023-12-20T11:25:47;7.00;99.90
12708;DHT22;6418;50.824;4.718;2023-12-20T11:28:16;7.00;99.90
12708;DHT22;6418;50.824;4.718;2023-12-20T11:30:48;7.00;99.90
12708;DHT22;6418;50.824;4.718;2023-12-20T11:33:16;7.00;99.90
12708;DHT22;6418;50.824;4.718;2023-12-20T11:35:45;7.00;99.90
12708;DHT22;6418;50.824;4.718;2023-12-20T11:38:13;7.00;99.90
12708;DHT22;6418;50.824;4.718;2023-12-20T11:40:41;7.00;99.90
12708;DHT22;6418;50.824;4.718;2023-12-20T11:43:09;7.00;99.90
12708;DHT22;6418;50.824;4.718;2023-12-20T11:45:38;7.00;99.90
12708;DHT22;6418;50.824;4.718;2023-12-20T11:48:15;7.00;99.90
12708;DHT22;6418;50.824;4.718;2023-12-20T11:50:42;7.00;99.90
12708;DHT22;6418;50.824;4.718;2023-12-20T11:53:10;7.00;99.90
12708;DHT22;6418;50.824;4.718;2023-12-20T11:55:37;7.00;99.90
12708;DHT22;6418;50.824;4.718;2023-12-20T11:58:04;7.00;99.90
12708;DHT22;6418;50.824;4.718;2023-12-20T12:00:31;7.00;99.90
12708;DHT22;6418;50.824;4.718;2023-12-20T12:03:00;7.00;99.90
12708;DHT22;6418;50.824;4.718;2023-12-20T12:05:30;7.00;99.90
12708;DHT22;6418;50.824;4.718;2023-12-20T12:07:57;7.00;99.90
12708;DHT22;6418;50.824;4.718;2023-12-20T12:10:24;7.00;99.90
12708;DHT22;6418;50.824;4.718;2023-12-20T12:12:53;7.00;99.90
12708;DHT22;6418;50.824;4.718;2023-12-20T12:15:20;7.00;99.90
12708;DHT22;6418;50.824;4.718;2023-12-20T12:17:53;7.10;99.90
12708;DHT22;6418;50.824;4.718;2023-12-20T12:20:22;7.00;99.90
12708;DHT22;6418;50.824;4.718;2023-12-20T12:22:58;7.10;99.90
12708;DHT22;6418;50.824;4.718;2023-12-20T12:25:25;7.10;99.90
12708;DHT22;6418;50.824;4.718;2023-12-20T12:27:52;7.10;99.90
12708;DHT22;6418;50.824;4.718;2023-12-20T12:30:19;7.10;99.90
12708;DHT22;6418;50.824;4.718;2023-12-20T12:32:47;7.10;99.90
12708;DHT22;6418;50.824;4.718;2023-12-20T12:35:14;7.10;99.90
12708;DHT22;6418;50.824;4.718;2023-12-20T12:37:43;7.10;99.90
12708;DHT22;6418;50.824;4.718;2023-12-20T12:40:11;7.20;99.90
12708;DHT22;6418;50.824;4.718;2023-12-20T12:42:39;7.20;99.90
12708;DHT22;6418;50.824;4.718;2023-12-20T12:45:07;7.20;99.90
12708;DHT22;6418;50.824;4.718;2023-12-20T12:47:34;7.20;99.90
12708;DHT22;6418;50.824;4.718;2023-12-20T12:50:01;7.20;99.90
12708;DHT22;6418;50.824;4.718;2023-12-20T12:52:28;7.20;99.90
12708;DHT22;6418;50.824;4.718;2023-12-20T12:54:57;7.20;99.90
12708;DHT22;6418;50.824;4.718;2023-12-20T12:57:24;7.20;99.90
12708;DHT22;6418;50.824;4.718;2023-12-20T12:59:50;7.20;99.90
12708;DHT22;6418;50.824;4.718;2023-12-20T13:02:17;7.20;99.90
12708;DHT22;6418;50.824;4.718;2023-12-20T13:04:45;7.20;99.90
12708;DHT22;6418;50.824;4.718;2023-12-20T13:07:12;7.20;99.90
12708;DHT22;6418;50.824;4.718;2023-12-20T13:09:39;7.30;99.90
12708;DHT22;6418;50.824;4.718;2023-12-20T13:12:08;7.30;99.90
12708;DHT22;6418;50.824;4.718;2023-12-20T13:14:36;7.30;99.90
12708;DHT22;6418;50.824;4.718;2023-12-20T13:17:04;7.30;99.90
12708;DHT22;6418;50.824;4.718;2023-12-20T13:19:31;7.30;99.90
12708;DHT22;6418;50.824;4.718;2023-12-20T13:21:58;7.30;99.90
12708;DHT22;6418;50.824;4.718;2023-12-20T13:24:25;7.30;99.90
12708;DHT22;6418;50.824;4.718;2023-12-20T13:26:52;7.30;99.90
12708;DHT22;6418;50.824;4.718;2023-12-20T13:29:21;7.30;99.90
12708;DHT22;6418;50.824;4.718;2023-12-20T13:31:49;7.30;99.90
12708;DHT22;6418;50.824;4.718;2023-12-20T13:34:16;7.30;99.90
12708;DHT22;6418;50.824;4.718;2023-12-20T13:36:43;7.30;99.90
12708;DHT22;6418;50.824;4.718;2023-12-20T13:39:13;7.30;99.90
12708;DHT22;6418;50.824;4.718;2023-12-20T13:41:40;7.30;99.90
12708;DHT22;6418;50.824;4.718;2023-12-20T13:44:07;7.30;99.90
12708;DHT22;6418;50.824;4.718;2023-12-20T13:46:36;7.30;99.90
12708;DHT22;6418;50.824;4.718;2023-12-20T13:49:03;7.30;99.90
12708;DHT22;6418;50.824;4.718;2023-12-20T13:51:30;7.30;99.90
12708;DHT22;6418;50.824;4.718;2023-12-20T13:53:57;7.30;99.90
12708;DHT22;6418;50.824;4.718;2023-12-20T13:56:25;7.30;99.90
12708;DHT22;6418;50.824;4.718;2023-12-20T13:58:52;7.30;99.90
12708;DHT22;6418;50.824;4.718;2023-12-20T14:01:19;7.30;99.90
12708;DHT22;6418;50.824;4.718;2023-12-20T14:03:47;7.30;99.90
12708;DHT22;6418;50.824;4.718;2023-12-20T14:06:14;7.30;99.90
12708;DHT22;6418;50.824;4.718;2023-12-20T14:08:42;7.30;99.90
12708;DHT22;6418;50.824;4.718;2023-12-20T14:11:09;7.30;99.90
12708;DHT22;6418;50.824;4.718;2023-12-20T14:13:37;7.30;99.90
12708;DHT22;6418;50.824;4.718;2023-12-20T14:16:04;7.30;99.90
12708;DHT22;6418;50.824;4.718;2023-12-20T14:18:31;7.40;99.90
12708;DHT22;6418;50.824;4.718;2023-12-20T14:20:59;7.30;99.90
12708;DHT22;6418;50.824;4.718;2023-12-20T14:23:26;7.30;99.90
12708;DHT22;6418;50.824;4.718;2023-12-20T14:25:53;7.40;99.90
12708;DHT22;6418;50.824;4.718;2023-12-20T14:28:21;7.40;99.90
12708;DHT22;6418;50.824;4.718;2023-12-20T14:30:48;7.40;99.90
12708;DHT22;6418;50.824;4.718;2023-12-20T14:33:15;7.40;99.90
12708;DHT22;6418;50.824;4.718;2023-12-20T14:35:42;7.40;99.90
12708;DHT22;6418;50.824;4.718;2023-12-20T14:38:11;7.40;99.90
12708;DHT22;6418;50.824;4.718;2023-12-20T14:40:40;7.50;99.90
12708;DHT22;6418;50.824;4.718;2023-12-20T14:43:07;7.50;99.90
12708;DHT22;6418;50.824;4.718;2023-12-20T14:45:34;7.50;99.90
12708;DHT22;6418;50.824;4.718;2023-12-20T14:48:01;7.50;99.90
12708;DHT22;6418;50.824;4.718;2023-12-20T14:50:28;7.50;99.90
12708;DHT22;6418;50.824;4.718;2023-12-20T14:52:55;7.50;99.90
12708;DHT22;6418;50.824;4.718;2023-12-20T14:55:24;7.50;99.90
12708;DHT22;6418;50.824;4.718;2023-12-20T14:57:53;7.50;99.90
12708;DHT22;6418;50.824;4.718;2023-12-20T15:00:20;7.50;99.90
12708;DHT22;6418;50.824;4.718;2023-12-20T15:02:47;7.60;99.90
12708;DHT22;6418;50.824;4.718;2023-12-20T15:05:14;7.60;99.90
12708;DHT22;6418;50.824;4.718;2023-12-20T15:07:41;7.60;99.90
12708;DHT22;6418;50.824;4.718;2023-12-20T15:10:08;7.60;99.90
12708;DHT22;6418;50.824;4.718;2023-12-20T15:12:37;7.60;99.90
12708;DHT22;6418;50.824;4.718;2023-12-20T15:15:05;7.60;99.90
12708;DHT22;6418;50.824;4.718;2023-12-20T15:17:32;7.60;99.90
12708;DHT22;6418;50.824;4.718;2023-12-20T15:19:59;7.60;99.90
12708;DHT22;6418;50.824;4.718;2023-12-20T15:22:26;7.60;99.90
12708;DHT22;6418;50.824;4.718;2023-12-20T15:24:53;7.60;99.90
12708;DHT22;6418;50.824;4.718;2023-12-20T15:27:20;7.70;99.90
12708;DHT22;6418;50.824;4.718;2023-12-20T15:29:49;7.70;99.90
12708;DHT22;6418;50.824;4.718;2023-12-20T15:32:17;7.70;99.90
12708;DHT22;6418;50.824;4.718;2023-12-20T15:34:45;7.70;99.90
12708;DHT22;6418;50.824;4.718;2023-12-20T15:37:12;7.70;99.90
12708;DHT22;6418;50.824;4.718;2023-12-20T15:39:41;7.70;99.90
12708;DHT22;6418;50.824;4.718;2023-12-20T15:42:08;7.70;99.90
12708;DHT22;6418;50.824;4.718;2023-12-20T15:44:35;7.70;99.90
12708;DHT22;6418;50.824;4.718;2023-12-20T15:47:04;7.80;99.90
12708;DHT22;6418;50.824;4.718;2023-12-20T15:49:30;7.80;99.90
12708;DHT22;6418;50.824;4.718;2023-12-20T15:51:57;7.80;99.90
12708;DHT22;6418;50.824;4.718;2023-12-20T15:54:24;7.80;99.90
12708;DHT22;6418;50.824;4.718;2023-12-20T15:56:51;7.80;99.90
12708;DHT22;6418;50.824;4.718;2023-12-20T15:59:18;7.90;99.90
12708;DHT22;6418;50.824;4.718;2023-12-20T16:01:45;7.90;99.90
12708;DHT22;6418;50.824;4.718;2023-12-20T16:04:14;7.90;99.90
12708;DHT22;6418;50.824;4.718;2023-12-20T16:06:41;7.90;99.90